sensor_id;sensor_type;location;lat;lon;timestamp;P1;durP1;ratioP1;P2;durP2;ratioP2
3083;SDS011;1552;51.952;7.618;2023-06-10T00:01:09;8.48;;;6.32;;
3083;SDS011;1552;51.952;7.618;2023-06-10T00:03:35;7.07;;;6.05;;
3083;SDS011;1552;51.952;7.618;2023-06-10T00:06:01;11.57;;;7.05;;
3083;SDS011;1552;51.952;7.618;2023-06-10T00:08:29;8.32;;;6.03;;
3083;SDS011;1552;51.952;7.618;2023-06-10T00:10:56;11.25;;;6.03;;
3083;SDS011;1552;51.952;7.618;2023-06-10T00:13:22;8.48;;;6.15;;
3083;SDS011;1552;51.952;7.618;2023-06-10T00:15:49;7.95;;;5.20;;
3083;SDS011;1552;51.952;7.618;2023-06-10T00:18:15;9.90;;;6.60;;
3083;SDS011;1552;51.952;7.618;2023-06-10T00:20:42;12.07;;;6.53;;
3083;SDS011;1552;51.952;7.618;2023-06-10T00:23:08;11.13;;;6.28;;
3083;SDS011;1552;51.952;7.618;2023-06-10T00:25:36;9.65;;;5.60;;
3083;SDS011;1552;51.952;7.618;2023-06-10T00:28:02;7.53;;;5.68;;
3083;SDS011;1552;51.952;7.618;2023-06-10T00:30:29;9.80;;;5.97;;
3083;SDS011;1552;51.952;7.618;2023-06-10T00:32:55;8.77;;;6.55;;
3083;SDS011;1552;51.952;7.618;2023-06-10T00:35:21;9.90;;;6.30;;
3083;SDS011;1552;51.952;7.618;2023-06-10T00:37:47;7.78;;;6.28;;
3083;SDS011;1552;51.952;7.618;2023-06-10T00:40:14;8.27;;;6.05;;
3083;SDS011;1552;51.952;7.618;2023-06-10T00:42:41;8.55;;;5.93;;
3083;SDS011;1552;51.952;7.618;2023-06-10T00:45:08;9.90;;;5.68;;
3083;SDS011;1552;51.952;7.618;2023-06-10T00:47:34;9.13;;;5.57;;
3083;SDS011;1552;51.952;7.618;2023-06-10T00:50:01;8.48;;;6.03;;
3083;SDS011;1552;51.952;7.618;2023-06-10T00:52:28;8.70;;;6.10;;
3083;SDS011;1552;51.952;7.618;2023-06-10T00:54:55;10.95;;;6.45;;
3083;SDS011;1552;51.952;7.618;2023-06-10T00:57:21;10.77;;;6.32;;
3083;SDS011;1552;51.952;7.618;2023-06-10T00:59:49;8.30;;;6.10;;
3083;SDS011;1552;51.952;7.618;2023-06-10T01:02:15;8.38;;;5.78;;
3083;SDS011;1552;51.952;7.618;2023-06-10T01:04:42;10.07;;;6.13;;
3083;SDS011;1552;51.952;7.618;2023-06-10T01:07:09;7.20;;;5.70;;
3083;SDS011;1552;51.952;7.618;2023-06-10T01:09:41;10.23;;;6.45;;
3083;SDS011;1552;51.952;7.618;2023-06-10T01:12:10;12.25;;;6.30;;
3083;SDS011;1552;51.952;7.618;2023-06-10T01:14:37;10.35;;;5.60;;
3083;SDS011;1552;51.952;7.618;2023-06-10T01:17:11;8.25;;;4.90;;
3083;SDS011;1552;51.952;7.618;2023-06-10T01:19:38;10.75;;;6.50;;
3083;SDS011;1552;51.952;7.618;2023-06-10T01:22:07;10.18;;;5.57;;
3083;SDS011;1552;51.952;7.618;2023-06-10T01:24:33;15.00;;;6.38;;
3083;SDS011;1552;51.952;7.618;2023-06-10T01:27:00;8.20;;;5.70;;
3083;SDS011;1552;51.952;7.618;2023-06-10T01:29:28;8.45;;;6.28;;
3083;SDS011;1552;51.952;7.618;2023-06-10T01:31:58;9.23;;;5.55;;
3083;SDS011;1552;51.952;7.618;2023-06-10T01:34:27;11.50;;;6.32;;
3083;SDS011;1552;51.952;7.618;2023-06-10T01:36:54;8.80;;;5.88;;
3083;SDS011;1552;51.952;7.618;2023-06-10T01:39:23;10.68;;;5.95;;
3083;SDS011;1552;51.952;7.618;2023-06-10T01:41:50;10.02;;;5.60;;
3083;SDS011;1552;51.952;7.618;2023-06-10T01:44:18;8.10;;;6.00;;
3083;SDS011;1552;51.952;7.618;2023-06-10T01:46:44;8.25;;;6.40;;
3083;SDS011;1552;51.952;7.618;2023-06-10T01:49:11;11.13;;;5.65;;
3083;SDS011;1552;51.952;7.618;2023-06-10T01:51:37;7.72;;;5.20;;
3083;SDS011;1552;51.952;7.618;2023-06-10T01:54:04;7.32;;;5.88;;
3083;SDS011;1552;51.952;7.618;2023-06-10T01:56:32;8.73;;;5.95;;
3083;SDS011;1552;51.952;7.618;2023-06-10T01:58:58;8.52;;;6.18;;
3083;SDS011;1552;51.952;7.618;2023-06-10T02:01:25;11.98;;;6.50;;
3083;SDS011;1552;51.952;7.618;2023-06-10T02:03:51;9.73;;;5.50;;
3083;SDS011;1552;51.952;7.618;2023-06-10T02:06:17;9.98;;;6.40;;
3083;SDS011;1552;51.952;7.618;2023-06-10T02:08:44;14.90;;;6.82;;
3083;SDS011;1552;51.952;7.618;2023-06-10T02:11:10;9.70;;;5.95;;
3083;SDS011;1552;51.952;7.618;2023-06-10T02:13:38;11.63;;;6.60;;
3083;SDS011;1552;51.952;7.618;2023-06-10T02:16:05;9.23;;;6.00;;
3083;SDS011;1552;51.952;7.618;2023-06-10T02:18:31;7.82;;;5.93;;
3083;SDS011;1552;51.952;7.618;2023-06-10T02:20:58;11.55;;;5.97;;
3083;SDS011;1552;51.952;7.618;2023-06-10T02:23:25;10.10;;;6.88;;
3083;SDS011;1552;51.952;7.618;2023-06-10T02:25:51;7.65;;;6.07;;
3083;SDS011;1552;51.952;7.618;2023-06-10T02:28:17;10.40;;;6.70;;
3083;SDS011;1552;51.952;7.618;2023-06-10T02:30:45;9.50;;;5.97;;
3083;SDS011;1552;51.952;7.618;2023-06-10T02:33:11;11.32;;;6.75;;
3083;SDS011;1552;51.952;7.618;2023-06-10T02:35:38;9.85;;;5.78;;
3083;SDS011;1552;51.952;7.618;2023-06-10T02:38:05;9.43;;;6.53;;
3083;SDS011;1552;51.952;7.618;2023-06-10T02:40:31;11.43;;;6.25;;
3083;SDS011;1552;51.952;7.618;2023-06-10T02:42:57;7.53;;;6.28;;
3083;SDS011;1552;51.952;7.618;2023-06-10T02:45:24;11.00;;;6.07;;
3083;SDS011;1552;51.952;7.618;2023-06-10T02:47:52;8.98;;;5.90;;
3083;SDS011;1552;51.952;7.618;2023-06-10T02:50:18;10.63;;;6.43;;
3083;SDS011;1552;51.952;7.618;2023-06-10T02:52:44;8.48;;;6.43;;
3083;SDS011;1552;51.952;7.618;2023-06-10T02:55:11;12.57;;;6.90;;
3083;SDS011;1552;51.952;7.618;2023-06-10T02:57:37;9.45;;;5.80;;
3083;SDS011;1552;51.952;7.618;2023-06-10T03:00:04;12.98;;;6.63;;
3083;SDS011;1552;51.952;7.618;2023-06-10T03:02:34;9.85;;;6.88;;
3083;SDS011;1552;51.952;7.618;2023-06-10T03:05:05;9.50;;;6.40;;
3083;SDS011;1552;51.952;7.618;2023-06-10T03:07:34;11.82;;;7.10;;
3083;SDS011;1552;51.952;7.618;2023-06-10T03:10:01;8.52;;;6.38;;
3083;SDS011;1552;51.952;7.618;2023-06-10T03:12:27;12.50;;;7.47;;
3083;SDS011;1552;51.952;7.618;2023-06-10T03:14:53;11.38;;;7.07;;
3083;SDS011;1552;51.952;7.618;2023-06-10T03:17:20;13.93;;;6.00;;
3083;SDS011;1552;51.952;7.618;2023-06-10T03:19:46;12.95;;;6.65;;
3083;SDS011;1552;51.952;7.618;2023-06-10T03:22:14;9.60;;;6.80;;
3083;SDS011;1552;51.952;7.618;2023-06-10T03:24:41;8.40;;;6.22;;
3083;SDS011;1552;51.952;7.618;2023-06-10T03:27:08;10.48;;;6.18;;
3083;SDS011;1552;51.952;7.618;2023-06-10T03:29:35;8.75;;;5.95;;
3083;SDS011;1552;51.952;7.618;2023-06-10T03:32:02;8.63;;;5.93;;
3083;SDS011;1552;51.952;7.618;2023-06-10T03:34:28;11.25;;;6.25;;
3083;SDS011;1552;51.952;7.618;2023-06-10T03:36:55;8.88;;;6.20;;
3083;SDS011;1552;51.952;7.618;2023-06-10T03:39:23;7.55;;;5.32;;
3083;SDS011;1552;51.952;7.618;2023-06-10T03:41:50;9.98;;;6.20;;
3083;SDS011;1552;51.952;7.618;2023-06-10T03:44:16;10.38;;;6.38;;
3083;SDS011;1552;51.952;7.618;2023-06-10T03:46:43;9.48;;;5.80;;
3083;SDS011;1552;51.952;7.618;2023-06-10T03:49:09;12.18;;;5.63;;
3083;SDS011;1552;51.952;7.618;2023-06-10T03:51:35;11.65;;;6.25;;
3083;SDS011;1552;51.952;7.618;2023-06-10T03:54:02;11.48;;;5.90;;
3083;SDS011;1552;51.952;7.618;2023-06-10T03:56:30;10.35;;;6.13;;
3083;SDS011;1552;51.952;7.618;2023-06-10T03:58:57;13.52;;;6.00;;
3083;SDS011;1552;51.952;7.618;2023-06-10T04:01:23;8.70;;;5.47;;
3083;SDS011;1552;51.952;7.618;2023-06-10T04:03:49;10.73;;;6.03;;
3083;SDS011;1552;51.952;7.618;2023-06-10T04:06:16;10.10;;;5.75;;
3083;SDS011;1552;51.952;7.618;2023-06-10T04:08:43;10.18;;;6.45;;
3083;SDS011;1552;51.952;7.618;2023-06-10T04:11:09;10.23;;;6.03;;
3083;SDS011;1552;51.952;7.618;2023-06-10T04:13:37;8.50;;;5.53;;
3083;SDS011;1552;51.952;7.618;2023-06-10T04:16:04;9.13;;;5.72;;
3083;SDS011;1552;51.952;7.618;2023-06-10T04:18:30;10.68;;;5.93;;
3083;SDS011;1552;51.952;7.618;2023-06-10T04:20:56;10.45;;;5.93;;
3083;SDS011;1552;51.952;7.618;2023-06-10T04:23:23;7.55;;;5.07;;
3083;SDS011;1552;51.952;7.618;2023-06-10T04:25:49;7.88;;;5.70;;
3083;SDS011;1552;51.952;7.618;2023-06-10T04:28:15;8.45;;;5.97;;
3083;SDS011;1552;51.952;7.618;2023-06-10T04:30:43;8.93;;;5.70;;
3083;SDS011;1552;51.952;7.618;2023-06-10T04:33:10;10.13;;;5.82;;
3083;SDS011;1552;51.952;7.618;2023-06-10T04:35:37;10.95;;;6.55;;
3083;SDS011;1552;51.952;7.618;2023-06-10T04:38:03;12.32;;;5.65;;
3083;SDS011;1552;51.952;7.618;2023-06-10T04:40:29;8.23;;;5.82;;
3083;SDS011;1552;51.952;7.618;2023-06-10T04:42:56;10.55;;;5.88;;
3083;SDS011;1552;51.952;7.618;2023-06-10T04:45:22;10.60;;;6.40;;
3083;SDS011;1552;51.952;7.618;2023-06-10T04:47:49;10.98;;;6.00;;
3083;SDS011;1552;51.952;7.618;2023-06-10T04:50:16;9.70;;;6.40;;
3083;SDS011;1552;51.952;7.618;2023-06-10T04:52:42;8.60;;;5.95;;
3083;SDS011;1552;51.952;7.618;2023-06-10T04:55:09;7.35;;;5.18;;
3083;SDS011;1552;51.952;7.618;2023-06-10T04:57:36;10.55;;;5.88;;
3083;SDS011;1552;51.952;7.618;2023-06-10T05:00:02;10.98;;;5.47;;
3083;SDS011;1552;51.952;7.618;2023-06-10T05:02:31;9.00;;;5.30;;
3083;SDS011;1552;51.952;7.618;2023-06-10T05:04:58;10.60;;;5.47;;
3083;SDS011;1552;51.952;7.618;2023-06-10T05:07:25;9.45;;;6.38;;
3083;SDS011;1552;51.952;7.618;2023-06-10T05:09:51;7.65;;;5.57;;
3083;SDS011;1552;51.952;7.618;2023-06-10T05:12:17;12.93;;;5.68;;
3083;SDS011;1552;51.952;7.618;2023-06-10T05:14:44;10.63;;;5.93;;
3083;SDS011;1552;51.952;7.618;2023-06-10T05:17:11;9.43;;;5.63;;
3083;SDS011;1552;51.952;7.618;2023-06-10T05:19:37;9.10;;;5.72;;
3083;SDS011;1552;51.952;7.618;2023-06-10T05:22:05;8.10;;;5.50;;
3083;SDS011;1552;51.952;7.618;2023-06-10T05:24:32;10.20;;;5.65;;
3083;SDS011;1552;51.952;7.618;2023-06-10T05:26:58;9.57;;;5.72;;
3083;SDS011;1552;51.952;7.618;2023-06-10T05:29:24;9.95;;;5.47;;
3083;SDS011;1552;51.952;7.618;2023-06-10T05:31:51;11.43;;;6.18;;
3083;SDS011;1552;51.952;7.618;2023-06-10T05:34:17;7.38;;;4.75;;
3083;SDS011;1552;51.952;7.618;2023-06-10T05:36:43;10.00;;;5.53;;
3083;SDS011;1552;51.952;7.618;2023-06-10T05:39:11;9.95;;;5.70;;
3083;SDS011;1552;51.952;7.618;2023-06-10T05:41:37;7.05;;;4.90;;
3083;SDS011;1552;51.952;7.618;2023-06-10T05:44:03;10.15;;;4.70;;
3083;SDS011;1552;51.952;7.618;2023-06-10T05:46:30;8.75;;;5.05;;
3083;SDS011;1552;51.952;7.618;2023-06-10T05:48:56;5.65;;;4.45;;
3083;SDS011;1552;51.952;7.618;2023-06-10T05:51:23;6.68;;;4.65;;
3083;SDS011;1552;51.952;7.618;2023-06-10T05:53:49;8.55;;;4.88;;
3083;SDS011;1552;51.952;7.618;2023-06-10T05:56:17;8.88;;;4.68;;
3083;SDS011;1552;51.952;7.618;2023-06-10T05:58:43;7.43;;;4.95;;
3083;SDS011;1552;51.952;7.618;2023-06-10T06:01:09;9.63;;;4.93;;
3083;SDS011;1552;51.952;7.618;2023-06-10T06:03:36;6.85;;;4.75;;
3083;SDS011;1552;51.952;7.618;2023-06-10T06:06:02;6.57;;;4.30;;
3083;SDS011;1552;51.952;7.618;2023-06-10T06:08:29;8.38;;;4.07;;
3083;SDS011;1552;51.952;7.618;2023-06-10T06:10:55;8.20;;;4.63;;
3083;SDS011;1552;51.952;7.618;2023-06-10T06:13:23;6.20;;;4.25;;
3083;SDS011;1552;51.952;7.618;2023-06-10T06:15:49;8.38;;;4.45;;
3083;SDS011;1552;51.952;7.618;2023-06-10T06:18:15;6.97;;;5.00;;
3083;SDS011;1552;51.952;7.618;2023-06-10T06:20:43;10.13;;;4.63;;
3083;SDS011;1552;51.952;7.618;2023-06-10T06:23:09;6.72;;;4.25;;
3083;SDS011;1552;51.952;7.618;2023-06-10T06:25:36;5.97;;;4.07;;
3083;SDS011;1552;51.952;7.618;2023-06-10T06:28:03;5.80;;;4.25;;
3083;SDS011;1552;51.952;7.618;2023-06-10T06:30:31;6.22;;;4.20;;
3083;SDS011;1552;51.952;7.618;2023-06-10T06:32:58;5.35;;;4.18;;
3083;SDS011;1552;51.952;7.618;2023-06-10T06:35:24;9.23;;;4.65;;
3083;SDS011;1552;51.952;7.618;2023-06-10T06:37:50;7.47;;;4.35;;
3083;SDS011;1552;51.952;7.618;2023-06-10T06:40:16;5.88;;;4.25;;
3083;SDS011;1552;51.952;7.618;2023-06-10T06:42:43;8.63;;;4.47;;
3083;SDS011;1552;51.952;7.618;2023-06-10T06:45:09;4.93;;;3.80;;
3083;SDS011;1552;51.952;7.618;2023-06-10T06:47:38;6.75;;;3.90;;
3083;SDS011;1552;51.952;7.618;2023-06-10T06:50:04;6.10;;;3.75;;
3083;SDS011;1552;51.952;7.618;2023-06-10T06:52:31;7.40;;;4.18;;
3083;SDS011;1552;51.952;7.618;2023-06-10T06:54:57;6.15;;;3.85;;
3083;SDS011;1552;51.952;7.618;2023-06-10T06:57:23;5.20;;;3.80;;
3083;SDS011;1552;51.952;7.618;2023-06-10T06:59:50;7.65;;;4.13;;
3083;SDS011;1552;51.952;7.618;2023-06-10T07:02:16;6.97;;;4.13;;
3083;SDS011;1552;51.952;7.618;2023-06-10T07:04:45;7.25;;;3.92;;
3083;SDS011;1552;51.952;7.618;2023-06-10T07:07:13;9.85;;;4.15;;
3083;SDS011;1552;51.952;7.618;2023-06-10T07:09:40;11.30;;;4.43;;
3083;SDS011;1552;51.952;7.618;2023-06-10T07:12:07;6.88;;;3.85;;
3083;SDS011;1552;51.952;7.618;2023-06-10T07:14:33;8.07;;;4.25;;
3083;SDS011;1552;51.952;7.618;2023-06-10T07:16:59;4.10;;;3.30;;
3083;SDS011;1552;51.952;7.618;2023-06-10T07:19:26;7.28;;;3.53;;
3083;SDS011;1552;51.952;7.618;2023-06-10T07:21:53;6.50;;;3.63;;
3083;SDS011;1552;51.952;7.618;2023-06-10T07:24:20;8.00;;;3.45;;
3083;SDS011;1552;51.952;7.618;2023-06-10T07:26:46;6.57;;;3.65;;
3083;SDS011;1552;51.952;7.618;2023-06-10T07:29:12;8.52;;;3.83;;
3083;SDS011;1552;51.952;7.618;2023-06-10T07:31:40;5.00;;;3.00;;
3083;SDS011;1552;51.952;7.618;2023-06-10T07:34:06;5.03;;;3.75;;
3083;SDS011;1552;51.952;7.618;2023-06-10T07:36:33;7.13;;;3.72;;
3083;SDS011;1552;51.952;7.618;2023-06-10T07:39:01;5.15;;;3.40;;
3083;SDS011;1552;51.952;7.618;2023-06-10T07:41:27;7.40;;;3.28;;
3083;SDS011;1552;51.952;7.618;2023-06-10T07:43:53;5.68;;;3.63;;
3083;SDS011;1552;51.952;7.618;2023-06-10T07:46:21;9.43;;;4.03;;
3083;SDS011;1552;51.952;7.618;2023-06-10T07:48:47;6.85;;;4.07;;
3083;SDS011;1552;51.952;7.618;2023-06-10T07:51:14;7.53;;;3.60;;
3083;SDS011;1552;51.952;7.618;2023-06-10T07:53:41;5.35;;;3.72;;
3083;SDS011;1552;51.952;7.618;2023-06-10T07:56:08;6.38;;;4.05;;
3083;SDS011;1552;51.952;7.618;2023-06-10T07:58:34;4.88;;;3.40;;
3083;SDS011;1552;51.952;7.618;2023-06-10T08:01:01;18.83;;;4.72;;
3083;SDS011;1552;51.952;7.618;2023-06-10T08:03:27;5.70;;;3.30;;
3083;SDS011;1552;51.952;7.618;2023-06-10T08:05:53;6.45;;;3.88;;
3083;SDS011;1552;51.952;7.618;2023-06-10T08:08:20;8.00;;;3.75;;
3083;SDS011;1552;51.952;7.618;2023-06-10T08:10:46;6.72;;;3.92;;
3083;SDS011;1552;51.952;7.618;2023-06-10T08:13:15;6.22;;;3.67;;
3083;SDS011;1552;51.952;7.618;2023-06-10T08:15:41;7.90;;;4.35;;
3083;SDS011;1552;51.952;7.618;2023-06-10T08:18:08;5.85;;;3.70;;
3083;SDS011;1552;51.952;7.618;2023-06-10T08:20:34;5.53;;;3.70;;
3083;SDS011;1552;51.952;7.618;2023-06-10T08:23:00;7.25;;;3.72;;
3083;SDS011;1552;51.952;7.618;2023-06-10T08:25:27;8.95;;;3.70;;
3083;SDS011;1552;51.952;7.618;2023-06-10T08:27:53;6.53;;;3.75;;
3083;SDS011;1552;51.952;7.618;2023-06-10T08:30:22;6.78;;;3.83;;
3083;SDS011;1552;51.952;7.618;2023-06-10T08:32:49;6.28;;;3.83;;
3083;SDS011;1552;51.952;7.618;2023-06-10T08:35:16;6.80;;;3.80;;
3083;SDS011;1552;51.952;7.618;2023-06-10T08:37:43;7.57;;;4.10;;
3083;SDS011;1552;51.952;7.618;2023-06-10T08:40:09;13.13;;;4.35;;
3083;SDS011;1552;51.952;7.618;2023-06-10T08:42:38;9.02;;;4.10;;
3083;SDS011;1552;51.952;7.618;2023-06-10T08:45:05;6.43;;;3.78;;
3083;SDS011;1552;51.952;7.618;2023-06-10T08:47:34;9.35;;;4.10;;
3083;SDS011;1552;51.952;7.618;2023-06-10T08:50:01;7.93;;;4.28;;
3083;SDS011;1552;51.952;7.618;2023-06-10T08:52:29;5.65;;;3.40;;
3083;SDS011;1552;51.952;7.618;2023-06-10T08:55:02;7.60;;;4.03;;
3083;SDS011;1552;51.952;7.618;2023-06-10T08:57:29;6.20;;;3.80;;
3083;SDS011;1552;51.952;7.618;2023-06-10T08:59:56;4.88;;;3.42;;
3083;SDS011;1552;51.952;7.618;2023-06-10T09:02:22;5.78;;;3.40;;
3083;SDS011;1552;51.952;7.618;2023-06-10T09:04:51;6.15;;;4.13;;
3083;SDS011;1552;51.952;7.618;2023-06-10T09:07:18;4.03;;;3.30;;
3083;SDS011;1552;51.952;7.618;2023-06-10T09:09:44;5.53;;;3.60;;
3083;SDS011;1552;51.952;7.618;2023-06-10T09:12:11;6.88;;;3.83;;
3083;SDS011;1552;51.952;7.618;2023-06-10T09:14:38;5.25;;;3.80;;
3083;SDS011;1552;51.952;7.618;2023-06-10T09:17:05;8.38;;;4.03;;
3083;SDS011;1552;51.952;7.618;2023-06-10T09:19:31;6.03;;;4.00;;
3083;SDS011;1552;51.952;7.618;2023-06-10T09:21:59;4.28;;;3.55;;
3083;SDS011;1552;51.952;7.618;2023-06-10T09:24:25;5.00;;;3.90;;
3083;SDS011;1552;51.952;7.618;2023-06-10T09:26:54;6.78;;;4.25;;
3083;SDS011;1552;51.952;7.618;2023-06-10T09:29:27;5.82;;;4.03;;
3083;SDS011;1552;51.952;7.618;2023-06-10T09:31:54;5.65;;;4.10;;
3083;SDS011;1552;51.952;7.618;2023-06-10T09:34:24;5.85;;;4.00;;
3083;SDS011;1552;51.952;7.618;2023-06-10T09:36:50;5.90;;;3.60;;
3083;SDS011;1552;51.952;7.618;2023-06-10T09:39:18;6.45;;;4.28;;
3083;SDS011;1552;51.952;7.618;2023-06-10T09:41:46;6.80;;;3.95;;
3083;SDS011;1552;51.952;7.618;2023-06-10T09:44:12;6.95;;;4.13;;
3083;SDS011;1552;51.952;7.618;2023-06-10T09:46:40;7.03;;;4.50;;
3083;SDS011;1552;51.952;7.618;2023-06-10T09:49:06;7.57;;;3.95;;
3083;SDS011;1552;51.952;7.618;2023-06-10T09:51:32;4.75;;;3.53;;
3083;SDS011;1552;51.952;7.618;2023-06-10T09:53:59;7.18;;;4.20;;
3083;SDS011;1552;51.952;7.618;2023-06-10T09:56:33;6.50;;;3.92;;
3083;SDS011;1552;51.952;7.618;2023-06-10T09:59:00;7.00;;;4.40;;
3083;SDS011;1552;51.952;7.618;2023-06-10T10:01:26;5.35;;;3.80;;
3083;SDS011;1552;51.952;7.618;2023-06-10T10:03:52;7.15;;;4.15;;
3083;SDS011;1552;51.952;7.618;2023-06-10T10:06:19;9.13;;;4.28;;
3083;SDS011;1552;51.952;7.618;2023-06-10T10:08:46;6.85;;;4.88;;
3083;SDS011;1552;51.952;7.618;2023-06-10T10:11:13;6.82;;;4.00;;
3083;SDS011;1552;51.952;7.618;2023-06-10T10:13:41;8.48;;;4.13;;
3083;SDS011;1552;51.952;7.618;2023-06-10T10:16:09;5.60;;;4.13;;
3083;SDS011;1552;51.952;7.618;2023-06-10T10:18:36;5.53;;;4.30;;
3083;SDS011;1552;51.952;7.618;2023-06-10T10:21:05;6.43;;;4.57;;
3083;SDS011;1552;51.952;7.618;2023-06-10T10:23:34;6.45;;;4.65;;
3083;SDS011;1552;51.952;7.618;2023-06-10T10:26:02;5.68;;;4.20;;
3083;SDS011;1552;51.952;7.618;2023-06-10T10:28:34;10.77;;;4.15;;
3083;SDS011;1552;51.952;7.618;2023-06-10T10:31:04;7.57;;;4.38;;
3083;SDS011;1552;51.952;7.618;2023-06-10T10:33:33;17.73;;;4.53;;
3083;SDS011;1552;51.952;7.618;2023-06-10T10:36:01;5.68;;;4.00;;
3083;SDS011;1552;51.952;7.618;2023-06-10T10:38:28;6.03;;;3.78;;
3083;SDS011;1552;51.952;7.618;2023-06-10T10:40:54;8.02;;;4.43;;
3083;SDS011;1552;51.952;7.618;2023-06-10T10:43:24;6.13;;;4.07;;
3083;SDS011;1552;51.952;7.618;2023-06-10T10:45:57;7.15;;;5.00;;
3083;SDS011;1552;51.952;7.618;2023-06-10T10:48:25;9.98;;;6.65;;
3083;SDS011;1552;51.952;7.618;2023-06-10T10:50:55;7.97;;;4.05;;
3083;SDS011;1552;51.952;7.618;2023-06-10T10:53:22;8.25;;;4.65;;
3083;SDS011;1552;51.952;7.618;2023-06-10T10:55:57;5.60;;;4.25;;
3083;SDS011;1552;51.952;7.618;2023-06-10T10:58:24;6.30;;;4.63;;
3083;SDS011;1552;51.952;7.618;2023-06-10T11:00:50;5.93;;;3.85;;
3083;SDS011;1552;51.952;7.618;2023-06-10T11:03:16;6.57;;;3.97;;
3083;SDS011;1552;51.952;7.618;2023-06-10T11:05:45;9.35;;;5.03;;
3083;SDS011;1552;51.952;7.618;2023-06-10T11:08:13;5.50;;;4.35;;
3083;SDS011;1552;51.952;7.618;2023-06-10T11:10:40;5.68;;;4.13;;
3083;SDS011;1552;51.952;7.618;2023-06-10T11:13:08;8.02;;;4.55;;
3083;SDS011;1552;51.952;7.618;2023-06-10T11:15:38;6.88;;;4.70;;
3083;SDS011;1552;51.952;7.618;2023-06-10T11:20:58;9.63;;;4.88;;
3083;SDS011;1552;51.952;7.618;2023-06-10T11:23:26;9.43;;;4.63;;
3083;SDS011;1552;51.952;7.618;2023-06-10T11:26:00;6.40;;;4.60;;
3083;SDS011;1552;51.952;7.618;2023-06-10T11:28:35;6.28;;;4.93;;
3083;SDS011;1552;51.952;7.618;2023-06-10T11:31:01;6.43;;;4.57;;
3083;SDS011;1552;51.952;7.618;2023-06-10T11:33:27;8.15;;;5.10;;
3083;SDS011;1552;51.952;7.618;2023-06-10T11:35:54;8.35;;;4.40;;
3083;SDS011;1552;51.952;7.618;2023-06-10T11:38:22;5.75;;;3.88;;
3083;SDS011;1552;51.952;7.618;2023-06-10T11:40:48;7.60;;;4.32;;
3083;SDS011;1552;51.952;7.618;2023-06-10T11:43:15;6.60;;;4.05;;
3083;SDS011;1552;51.952;7.618;2023-06-10T11:45:42;6.47;;;4.20;;
3083;SDS011;1552;51.952;7.618;2023-06-10T11:48:08;7.18;;;4.63;;
3083;SDS011;1552;51.952;7.618;2023-06-10T11:50:35;11.27;;;6.45;;
3083;SDS011;1552;51.952;7.618;2023-06-10T11:53:02;7.35;;;4.78;;
3083;SDS011;1552;51.952;7.618;2023-06-10T11:55:41;8.50;;;5.30;;
3083;SDS011;1552;51.952;7.618;2023-06-10T11:58:11;9.38;;;4.85;;
3083;SDS011;1552;51.952;7.618;2023-06-10T12:00:43;8.77;;;4.80;;
3083;SDS011;1552;51.952;7.618;2023-06-10T12:03:09;8.70;;;4.40;;
3083;SDS011;1552;51.952;7.618;2023-06-10T12:05:36;6.55;;;4.53;;
3083;SDS011;1552;51.952;7.618;2023-06-10T12:08:07;9.15;;;4.63;;
3083;SDS011;1552;51.952;7.618;2023-06-10T12:10:38;11.15;;;4.85;;
3083;SDS011;1552;51.952;7.618;2023-06-10T12:13:06;5.57;;;4.30;;
3083;SDS011;1552;51.952;7.618;2023-06-10T12:15:32;8.48;;;5.32;;
3083;SDS011;1552;51.952;7.618;2023-06-10T12:17:59;8.02;;;4.63;;
3083;SDS011;1552;51.952;7.618;2023-06-10T12:20:26;7.47;;;4.13;;
3083;SDS011;1552;51.952;7.618;2023-06-10T12:22:53;5.55;;;4.00;;
3083;SDS011;1552;51.952;7.618;2023-06-10T12:25:24;7.80;;;5.35;;
3083;SDS011;1552;51.952;7.618;2023-06-10T12:27:51;9.05;;;5.20;;
3083;SDS011;1552;51.952;7.618;2023-06-10T12:30:19;7.03;;;4.90;;
3083;SDS011;1552;51.952;7.618;2023-06-10T12:32:46;7.15;;;5.25;;
3083;SDS011;1552;51.952;7.618;2023-06-10T12:35:15;6.13;;;4.55;;
3083;SDS011;1552;51.952;7.618;2023-06-10T12:37:42;8.60;;;4.72;;
3083;SDS011;1552;51.952;7.618;2023-06-10T12:40:09;5.60;;;4.45;;
3083;SDS011;1552;51.952;7.618;2023-06-10T12:42:36;9.30;;;5.82;;
3083;SDS011;1552;51.952;7.618;2023-06-10T12:45:03;7.82;;;4.50;;
3083;SDS011;1552;51.952;7.618;2023-06-10T12:47:33;7.03;;;4.60;;
3083;SDS011;1552;51.952;7.618;2023-06-10T12:50:00;4.80;;;4.30;;
3083;SDS011;1552;51.952;7.618;2023-06-10T12:52:28;5.03;;;4.13;;
3083;SDS011;1552;51.952;7.618;2023-06-10T12:54:54;7.38;;;5.28;;
3083;SDS011;1552;51.952;7.618;2023-06-10T12:57:21;7.50;;;4.70;;
3083;SDS011;1552;51.952;7.618;2023-06-10T12:59:47;10.20;;;4.80;;
3083;SDS011;1552;51.952;7.618;2023-06-10T13:02:17;5.90;;;4.90;;
3083;SDS011;1552;51.952;7.618;2023-06-10T13:04:46;9.82;;;4.80;;
3083;SDS011;1552;51.952;7.618;2023-06-10T13:07:12;9.57;;;4.60;;
3083;SDS011;1552;51.952;7.618;2023-06-10T13:09:38;10.13;;;5.75;;
3083;SDS011;1552;51.952;7.618;2023-06-10T13:12:05;8.70;;;5.47;;
3083;SDS011;1552;51.952;7.618;2023-06-10T13:14:33;8.48;;;5.60;;
3083;SDS011;1552;51.952;7.618;2023-06-10T13:16:59;11.10;;;5.55;;
3083;SDS011;1552;51.952;7.618;2023-06-10T13:19:25;5.78;;;5.00;;
3083;SDS011;1552;51.952;7.618;2023-06-10T13:21:53;6.75;;;4.85;;
3083;SDS011;1552;51.952;7.618;2023-06-10T13:24:19;8.48;;;5.28;;
3083;SDS011;1552;51.952;7.618;2023-06-10T13:26:46;6.10;;;4.65;;
3083;SDS011;1552;51.952;7.618;2023-06-10T13:29:12;6.60;;;4.80;;
3083;SDS011;1552;51.952;7.618;2023-06-10T13:31:39;4.38;;;3.78;;
3083;SDS011;1552;51.952;7.618;2023-06-10T13:34:05;6.85;;;5.07;;
3083;SDS011;1552;51.952;7.618;2023-06-10T13:36:32;6.20;;;4.53;;
3083;SDS011;1552;51.952;7.618;2023-06-10T13:38:59;6.68;;;5.07;;
3083;SDS011;1552;51.952;7.618;2023-06-10T13:41:26;8.68;;;5.45;;
3083;SDS011;1552;51.952;7.618;2023-06-10T13:43:53;10.07;;;5.88;;
3083;SDS011;1552;51.952;7.618;2023-06-10T13:46:19;6.63;;;4.97;;
3083;SDS011;1552;51.952;7.618;2023-06-10T13:48:46;6.05;;;4.53;;
3083;SDS011;1552;51.952;7.618;2023-06-10T13:51:13;7.63;;;5.03;;
3083;SDS011;1552;51.952;7.618;2023-06-10T13:53:39;7.65;;;4.55;;
3083;SDS011;1552;51.952;7.618;2023-06-10T13:56:07;6.13;;;4.57;;
3083;SDS011;1552;51.952;7.618;2023-06-10T13:58:33;7.22;;;4.78;;
3083;SDS011;1552;51.952;7.618;2023-06-10T14:01:03;6.00;;;5.05;;
3083;SDS011;1552;51.952;7.618;2023-06-10T14:03:30;6.45;;;4.40;;
3083;SDS011;1552;51.952;7.618;2023-06-10T14:05:56;7.50;;;5.47;;
3083;SDS011;1552;51.952;7.618;2023-06-10T14:08:23;8.77;;;5.03;;
3083;SDS011;1552;51.952;7.618;2023-06-10T14:10:49;6.97;;;5.03;;
3083;SDS011;1552;51.952;7.618;2023-06-10T14:13:17;10.35;;;5.25;;
3083;SDS011;1552;51.952;7.618;2023-06-10T14:15:43;5.65;;;4.65;;
3083;SDS011;1552;51.952;7.618;2023-06-10T14:18:10;5.75;;;4.55;;
3083;SDS011;1552;51.952;7.618;2023-06-10T14:20:37;6.40;;;5.05;;
3083;SDS011;1552;51.952;7.618;2023-06-10T14:23:03;5.60;;;4.70;;
3083;SDS011;1552;51.952;7.618;2023-06-10T14:25:29;6.22;;;4.40;;
3083;SDS011;1552;51.952;7.618;2023-06-10T14:27:56;6.88;;;4.95;;
3083;SDS011;1552;51.952;7.618;2023-06-10T14:30:24;6.43;;;4.97;;
3083;SDS011;1552;51.952;7.618;2023-06-10T14:32:50;9.80;;;5.50;;
3083;SDS011;1552;51.952;7.618;2023-06-10T14:35:16;9.80;;;5.15;;
3083;SDS011;1552;51.952;7.618;2023-06-10T14:37:42;7.18;;;5.00;;
3083;SDS011;1552;51.952;7.618;2023-06-10T14:40:09;8.75;;;5.07;;
3083;SDS011;1552;51.952;7.618;2023-06-10T14:42:35;5.53;;;4.45;;
3083;SDS011;1552;51.952;7.618;2023-06-10T14:45:02;8.55;;;6.28;;
3083;SDS011;1552;51.952;7.618;2023-06-10T14:47:29;7.30;;;5.68;;
3083;SDS011;1552;51.952;7.618;2023-06-10T14:49:56;6.00;;;4.88;;
3083;SDS011;1552;51.952;7.618;2023-06-10T14:52:22;6.20;;;5.20;;
3083;SDS011;1552;51.952;7.618;2023-06-10T14:54:48;6.45;;;4.55;;
3083;SDS011;1552;51.952;7.618;2023-06-10T14:57:14;5.93;;;4.72;;
3083;SDS011;1552;51.952;7.618;2023-06-10T14:59:41;10.98;;;6.53;;
3083;SDS011;1552;51.952;7.618;2023-06-10T15:02:07;7.40;;;5.55;;
3083;SDS011;1552;51.952;7.618;2023-06-10T15:04:35;7.40;;;5.53;;
3083;SDS011;1552;51.952;7.618;2023-06-10T15:07:01;7.65;;;4.97;;
3083;SDS011;1552;51.952;7.618;2023-06-10T15:09:27;6.00;;;5.40;;
3083;SDS011;1552;51.952;7.618;2023-06-10T15:11:53;5.35;;;3.95;;
3083;SDS011;1552;51.952;7.618;2023-06-10T15:14:20;5.85;;;4.45;;